sensor_id;sensor_type;location;lat;lon;timestamp;pressure;altitude;pressure_sealevel;temperature;humidity
52249;BME280;38541;48.130;8.378;2023-01-25T00:00:27;93977.78;;;0.40;85.11
52249;BME280;38541;48.130;8.378;2023-01-25T00:02:53;93978.63;;;0.32;84.75
52249;BME280;38541;48.130;8.378;2023-01-25T00:05:20;93970.72;;;0.34;85.45
52249;BME280;38541;48.130;8.378;2023-01-25T00:07:46;93969.41;;;0.38;85.04
52249;BME280;38541;48.130;8.378;2023-01-25T00:10:13;93969.41;;;0.38;85.30
52249;BME280;38541;48.130;8.378;2023-01-25T00:12:39;93971.00;;;0.39;85.43
52249;BME280;38541;48.130;8.378;2023-01-25T00:15:06;93969.88;;;0.41;85.25
52249;BME280;38541;48.130;8.378;2023-01-25T00:17:33;93956.81;;;0.35;84.91
52249;BME280;38541;48.130;8.378;2023-01-25T00:20:00;93960.03;;;0.37;85.25
52249;BME280;38541;48.130;8.378;2023-01-25T00:22:26;93955.34;;;0.40;85.84
52249;BME280;38541;48.130;8.378;2023-01-25T00:24:53;93955.16;;;0.42;85.35
52249;BME280;38541;48.130;8.378;2023-01-25T00:27:19;93964.53;;;0.43;85.42
52249;BME280;38541;48.130;8.378;2023-01-25T00:29:46;93949.66;;;0.45;85.51
52249;BME280;38541;48.130;8.378;2023-01-25T00:34:50;93945.78;;;0.49;85.79
52249;BME280;38541;48.130;8.378;2023-01-25T00:37:22;93948.00;;;0.52;84.97
52249;BME280;38541;48.130;8.378;2023-01-25T00:39:50;93945.09;;;0.55;84.94
52249;BME280;38541;48.130;8.378;2023-01-25T00:42:17;93948.19;;;0.51;84.62
52249;BME280;38541;48.130;8.378;2023-01-25T00:44:46;93946.63;;;0.41;84.99
52249;BME280;38541;48.130;8.378;2023-01-25T00:47:14;93955.78;;;0.44;85.32
52249;BME280;38541;48.130;8.378;2023-01-25T00:49:42;93947.41;;;0.42;84.79
52249;BME280;38541;48.130;8.378;2023-01-25T00:52:10;93944.81;;;0.42;85.08
52249;BME280;38541;48.130;8.378;2023-01-25T00:54:37;93937.69;;;0.44;85.54
52249;BME280;38541;48.130;8.378;2023-01-25T00:57:04;93938.03;;;0.49;85.58
52249;BME280;38541;48.130;8.378;2023-01-25T00:59:32;93931.06;;;0.50;85.15
52249;BME280;38541;48.130;8.378;2023-01-25T01:02:00;93952.56;;;0.50;85.22
52249;BME280;38541;48.130;8.378;2023-01-25T01:04:27;93949.16;;;0.50;84.58
52249;BME280;38541;48.130;8.378;2023-01-25T01:06:54;93949.50;;;0.47;85.24
52249;BME280;38541;48.130;8.378;2023-01-25T01:09:22;93941.91;;;0.45;84.78
52249;BME280;38541;48.130;8.378;2023-01-25T01:11:51;93944.66;;;0.44;84.93
52249;BME280;38541;48.130;8.378;2023-01-25T01:14:18;93947.88;;;0.46;84.93
52249;BME280;38541;48.130;8.378;2023-01-25T01:16:45;93945.81;;;0.41;85.46
52249;BME280;38541;48.130;8.378;2023-01-25T01:19:12;93940.34;;;0.36;84.83
52249;BME280;38541;48.130;8.378;2023-01-25T01:21:39;93946.78;;;0.40;85.47
52249;BME280;38541;48.130;8.378;2023-01-25T01:24:05;93935.31;;;0.42;84.75
52249;BME280;38541;48.130;8.378;2023-01-25T01:26:32;93932.88;;;0.41;84.85
52249;BME280;38541;48.130;8.378;2023-01-25T01:28:59;93921.56;;;0.42;84.65
52249;BME280;38541;48.130;8.378;2023-01-25T01:31:25;93922.81;;;0.46;85.10
52249;BME280;38541;48.130;8.378;2023-01-25T01:34:11;93931.25;;;0.48;85.27
52249;BME280;38541;48.130;8.378;2023-01-25T01:36:38;93923.28;;;0.50;84.87
52249;BME280;38541;48.130;8.378;2023-01-25T01:39:04;93924.44;;;0.47;84.94
52249;BME280;38541;48.130;8.378;2023-01-25T01:41:31;93925.75;;;0.43;85.19
52249;BME280;38541;48.130;8.378;2023-01-25T01:43:58;93921.22;;;0.45;85.21
52249;BME280;38541;48.130;8.378;2023-01-25T01:46:32;93916.03;;;0.45;84.85
52249;BME280;38541;48.130;8.378;2023-01-25T01:49:10;93916.03;;;0.45;84.75
52249;BME280;38541;48.130;8.378;2023-01-25T01:54:28;93918.13;;;0.50;84.46
52249;BME280;38541;48.130;8.378;2023-01-25T01:57:03;93911.69;;;0.46;84.26
52249;BME280;38541;48.130;8.378;2023-01-25T01:59:43;93921.22;;;0.45;84.65
52249;BME280;38541;48.130;8.378;2023-01-25T02:02:12;93914.97;;;0.39;85.04
52249;BME280;38541;48.130;8.378;2023-01-25T02:04:41;93925.31;;;0.39;84.86
52249;BME280;38541;48.130;8.378;2023-01-25T02:09:44;93915.59;;;0.41;84.95
52249;BME280;38541;48.130;8.378;2023-01-25T02:12:11;93918.00;;;0.43;85.21
52249;BME280;38541;48.130;8.378;2023-01-25T02:14:46;93916.03;;;0.45;84.79
52249;BME280;38541;48.130;8.378;2023-01-25T02:17:31;93917.84;;;0.45;84.59
52249;BME280;38541;48.130;8.378;2023-01-25T02:20:16;93908.97;;;0.39;85.03
52249;BME280;38541;48.130;8.378;2023-01-25T02:25:24;93915.13;;;0.38;85.38
52249;BME280;38541;48.130;8.378;2023-01-25T02:27:55;93919.66;;;0.36;84.89
52249;BME280;38541;48.130;8.378;2023-01-25T02:30:24;93915.13;;;0.38;85.52
52249;BME280;38541;48.130;8.378;2023-01-25T02:32:51;93918.84;;;0.35;85.09
52249;BME280;38541;48.130;8.378;2023-01-25T02:35:24;93921.25;;;0.37;85.26
52249;BME280;38541;48.130;8.378;2023-01-25T02:37:51;93920.66;;;0.26;84.69
52249;BME280;38541;48.130;8.378;2023-01-25T02:40:17;93923.09;;;0.28;85.25
52249;BME280;38541;48.130;8.378;2023-01-25T02:42:45;93913.03;;;0.33;85.81
52249;BME280;38541;48.130;8.378;2023-01-25T02:45:15;93910.78;;;0.38;85.66
52249;BME280;38541;48.130;8.378;2023-01-25T02:47:44;93910.25;;;0.43;85.53
52249;BME280;38541;48.130;8.378;2023-01-25T02:50:10;93907.50;;;0.45;85.07
52249;BME280;38541;48.130;8.378;2023-01-25T02:52:40;93903.47;;;0.42;84.88
52249;BME280;38541;48.130;8.378;2023-01-25T02:55:07;93906.88;;;0.42;85.01
52249;BME280;38541;48.130;8.378;2023-01-25T02:57:35;93901.69;;;0.42;84.95
52249;BME280;38541;48.130;8.378;2023-01-25T03:00:03;93899.09;;;0.42;84.67
52249;BME280;38541;48.130;8.378;2023-01-25T03:02:30;93902.25;;;0.30;84.50
52249;BME280;38541;48.130;8.378;2023-01-25T03:04:57;93898.69;;;0.31;84.92
52249;BME280;38541;48.130;8.378;2023-01-25T03:07:24;93896.75;;;0.33;85.17
52249;BME280;38541;48.130;8.378;2023-01-25T03:09:50;93892.53;;;0.32;85.51
52249;BME280;38541;48.130;8.378;2023-01-25T03:12:17;93896.56;;;0.34;85.31
52249;BME280;38541;48.130;8.378;2023-01-25T03:14:44;93892.53;;;0.32;85.18
52249;BME280;38541;48.130;8.378;2023-01-25T03:17:11;93890.59;;;0.34;85.46
52249;BME280;38541;48.130;8.378;2023-01-25T03:19:38;93892.19;;;0.35;85.59
52249;BME280;38541;48.130;8.378;2023-01-25T03:22:05;93877.97;;;0.39;85.16
52249;BME280;38541;48.130;8.378;2023-01-25T03:24:32;93878.59;;;0.41;85.55
52249;BME280;38541;48.130;8.378;2023-01-25T03:27:36;93884.09;;;0.38;85.00
52249;BME280;38541;48.130;8.378;2023-01-25T03:30:07;93881.53;;;0.38;84.77
52249;BME280;38541;48.130;8.378;2023-01-25T03:32:34;93883.47;;;0.36;85.14
52249;BME280;38541;48.130;8.378;2023-01-25T03:35:08;93876.97;;;0.40;85.18
52249;BME280;38541;48.130;8.378;2023-01-25T03:37:35;93870.47;;;0.44;84.96
52249;BME280;38541;48.130;8.378;2023-01-25T03:40:03;93866.91;;;0.45;84.69
52249;BME280;38541;48.130;8.378;2023-01-25T03:42:31;93873.06;;;0.44;84.31
52249;BME280;38541;48.130;8.378;2023-01-25T03:44:57;93876.00;;;0.41;85.05
52249;BME280;38541;48.130;8.378;2023-01-25T03:47:24;93874.44;;;0.32;84.74
52249;BME280;38541;48.130;8.378;2023-01-25T03:49:51;93869.63;;;0.28;84.79
52249;BME280;38541;48.130;8.378;2023-01-25T03:52:18;93867.19;;;0.27;85.00
52249;BME280;38541;48.130;8.378;2023-01-25T03:54:45;93870.75;;;0.26;85.68
52249;BME280;38541;48.130;8.378;2023-01-25T03:57:12;93869.16;;;0.25;85.29
52249;BME280;38541;48.130;8.378;2023-01-25T03:59:50;93868.03;;;0.19;86.13
52249;BME280;38541;48.130;8.378;2023-01-25T04:02:18;93868.69;;;0.21;85.87
52249;BME280;38541;48.130;8.378;2023-01-25T04:04:44;93869.66;;;0.20;86.13
52249;BME280;38541;48.130;8.378;2023-01-25T04:07:13;93863.16;;;0.24;85.69
52249;BME280;38541;48.130;8.378;2023-01-25T04:09:40;93866.06;;;0.30;85.60
52249;BME280;38541;48.130;8.378;2023-01-25T04:12:08;93853.59;;;0.33;85.80
52249;BME280;38541;48.130;8.378;2023-01-25T04:14:36;93850.56;;;0.30;85.31
52249;BME280;38541;48.130;8.378;2023-01-25T04:17:15;93857.84;;;0.26;85.41
52249;BME280;38541;48.130;8.378;2023-01-25T04:19:48;93857.00;;;0.34;85.91
52249;BME280;38541;48.130;8.378;2023-01-25T04:22:17;93850.66;;;0.36;84.87
52249;BME280;38541;48.130;8.378;2023-01-25T04:24:46;93848.75;;;0.30;84.48
52249;BME280;38541;48.130;8.378;2023-01-25T04:27:13;93845.03;;;0.33;85.26
52249;BME280;38541;48.130;8.378;2023-01-25T04:29:50;93850.03;;;0.34;85.20
52249;BME280;38541;48.130;8.378;2023-01-25T04:32:19;93858.13;;;0.31;85.02
52249;BME280;38541;48.130;8.378;2023-01-25T04:34:46;93858.94;;;0.32;85.40
52249;BME280;38541;48.130;8.378;2023-01-25T04:37:16;93850.50;;;0.38;85.26
52249;BME280;38541;48.130;8.378;2023-01-25T04:39:52;93845.03;;;0.33;84.87
52249;BME280;38541;48.130;8.378;2023-01-25T04:42:19;93849.25;;;0.34;85.64
52249;BME280;38541;48.130;8.378;2023-01-25T04:44:49;93840.66;;;0.33;85.21
52249;BME280;38541;48.130;8.378;2023-01-25T04:47:17;93848.25;;;0.35;85.46
52249;BME280;38541;48.130;8.378;2023-01-25T04:49:43;93846.03;;;0.32;85.04
52249;BME280;38541;48.130;8.378;2023-01-25T04:52:12;93839.88;;;0.33;85.35
52249;BME280;38541;48.130;8.378;2023-01-25T04:54:38;93837.28;;;0.33;85.12
52249;BME280;38541;48.130;8.378;2023-01-25T04:57:05;93852.81;;;0.33;85.39
52249;BME280;38541;48.130;8.378;2023-01-25T04:59:32;93854.75;;;0.31;85.81
52249;BME280;38541;48.130;8.378;2023-01-25T05:01:59;93848.59;;;0.32;85.32
52249;BME280;38541;48.130;8.378;2023-01-25T05:04:26;93847.78;;;0.31;85.70
52249;BME280;38541;48.130;8.378;2023-01-25T05:06:53;93853.44;;;0.35;84.83
52249;BME280;38541;48.130;8.378;2023-01-25T05:09:20;93848.94;;;0.28;84.89
52249;BME280;38541;48.130;8.378;2023-01-25T05:11:47;93845.41;;;0.30;85.06
52249;BME280;38541;48.130;8.378;2023-01-25T05:14:24;93849.06;;;0.35;85.48
52249;BME280;38541;48.130;8.378;2023-01-25T05:16:51;93854.22;;;0.35;85.13
52249;BME280;38541;48.130;8.378;2023-01-25T05:19:17;93849.06;;;0.35;84.71
52249;BME280;38541;48.130;8.378;2023-01-25T05:22:03;93839.41;;;0.29;84.71
52249;BME280;38541;48.130;8.378;2023-01-25T05:24:39;93836.97;;;0.27;85.01
52249;BME280;38541;48.130;8.378;2023-01-25T05:27:15;93842.13;;;0.36;85.00
52249;BME280;38541;48.130;8.378;2023-01-25T05:30:05;93836.94;;;0.36;84.60
52249;BME280;38541;48.130;8.378;2023-01-25T05:32:51;93836.94;;;0.36;84.91
52249;BME280;38541;48.130;8.378;2023-01-25T05:35:17;93840.84;;;0.32;84.85
52249;BME280;38541;48.130;8.378;2023-01-25T05:37:45;93835.16;;;0.36;85.10
52249;BME280;38541;48.130;8.378;2023-01-25T05:40:20;93837.41;;;0.39;84.88
52249;BME280;38541;48.130;8.378;2023-01-25T05:42:55;93839.53;;;0.36;84.87
52249;BME280;38541;48.130;8.378;2023-01-25T05:45:23;93843.78;;;0.28;84.25
52249;BME280;38541;48.130;8.378;2023-01-25T05:47:54;93837.38;;;0.16;84.87
52249;BME280;38541;48.130;8.378;2023-01-25T05:50:22;93847.72;;;0.16;84.61
52249;BME280;38541;48.130;8.378;2023-01-25T05:52:56;93843.19;;;0.18;85.09
52249;BME280;38541;48.130;8.378;2023-01-25T05:55:23;93844.78;;;0.19;84.81
52249;BME280;38541;48.130;8.378;2023-01-25T05:57:54;93839.28;;;0.22;85.60
52249;BME280;38541;48.130;8.378;2023-01-25T06:00:21;93841.88;;;0.22;85.71
52249;BME280;38541;48.130;8.378;2023-01-25T06:02:48;93838.66;;;0.20;85.12
52249;BME280;38541;48.130;8.378;2023-01-25T06:05:19;93835.28;;;0.20;85.25
52249;BME280;38541;48.130;8.378;2023-01-25T06:07:46;93836.75;;;0.14;85.57
52249;BME280;38541;48.130;8.378;2023-01-25T06:10:13;93836.13;;;0.12;85.50
52249;BME280;38541;48.130;8.378;2023-01-25T06:12:40;93831.47;;;0.07;85.60
52249;BME280;38541;48.130;8.378;2023-01-25T06:15:07;93832.91;;;0.10;85.55
52249;BME280;38541;48.130;8.378;2023-01-25T06:17:34;93829.97;;;0.13;85.76
52249;BME280;38541;48.130;8.378;2023-01-25T06:20:17;93833.19;;;0.15;86.11
52249;BME280;38541;48.130;8.378;2023-01-25T06:23:02;93824.41;;;0.24;86.28
52249;BME280;38541;48.130;8.378;2023-01-25T06:25:28;93824.59;;;0.23;84.48
52249;BME280;38541;48.130;8.378;2023-01-25T06:27:55;93828.59;;;0.25;85.55
52249;BME280;38541;48.130;8.378;2023-01-25T06:30:21;93828.28;;;0.28;85.11
52249;BME280;38541;48.130;8.378;2023-01-25T06:32:48;93822.28;;;0.28;84.74
52249;BME280;38541;48.130;8.378;2023-01-25T06:35:15;93819.53;;;0.30;84.52
52249;BME280;38541;48.130;8.378;2023-01-25T06:37:43;93806.44;;;0.31;84.90
52249;BME280;38541;48.130;8.378;2023-01-25T06:40:10;93816.78;;;0.31;83.94
52249;BME280;38541;48.130;8.378;2023-01-25T06:42:36;93817.63;;;0.23;83.96
52249;BME280;38541;48.130;8.378;2023-01-25T06:45:03;93814.41;;;0.21;83.66
52249;BME280;38541;48.130;8.378;2023-01-25T06:47:30;93815.94;;;0.07;84.01
52249;BME280;38541;48.130;8.378;2023-01-25T06:49:56;93813.84;;;0.11;84.46
52249;BME280;38541;48.130;8.378;2023-01-25T06:52:23;93820.78;;;0.10;84.64
52249;BME280;38541;48.130;8.378;2023-01-25T06:54:49;93812.88;;;0.12;84.68
52249;BME280;38541;48.130;8.378;2023-01-25T06:57:16;93813.19;;;0.09;84.74
52249;BME280;38541;48.130;8.378;2023-01-25T06:59:42;93816.44;;;0.11;84.93
52249;BME280;38541;48.130;8.378;2023-01-25T07:02:14;93811.25;;;0.11;83.98
52249;BME280;38541;48.130;8.378;2023-01-25T07:04:41;93805.50;;;0.01;84.37
52249;BME280;38541;48.130;8.378;2023-01-25T07:07:08;93814.00;;;0.09;84.28
52249;BME280;38541;48.130;8.378;2023-01-25T07:09:34;93811.06;;;0.12;84.42
52249;BME280;38541;48.130;8.378;2023-01-25T07:12:01;93813.50;;;0.14;84.31
52249;BME280;38541;48.130;8.378;2023-01-25T07:14:30;93815.72;;;0.17;84.47
52249;BME280;38541;48.130;8.378;2023-01-25T07:16:57;93805.06;;;0.20;84.72
52249;BME280;38541;48.130;8.378;2023-01-25T07:19:23;93817.00;;;0.21;84.27
52249;BME280;38541;48.130;8.378;2023-01-25T07:21:50;93817.19;;;0.20;83.72
52249;BME280;38541;48.130;8.378;2023-01-25T07:24:18;93816.72;;;0.16;83.19
52249;BME280;38541;48.130;8.378;2023-01-25T07:26:45;93817.06;;;0.13;83.85
52249;BME280;38541;48.130;8.378;2023-01-25T07:29:14;93819.94;;;0.18;83.73
52249;BME280;38541;48.130;8.378;2023-01-25T07:31:41;93822.63;;;0.25;83.33
52249;BME280;38541;48.130;8.378;2023-01-25T07:34:10;93813.72;;;0.27;83.19
52249;BME280;38541;48.130;8.378;2023-01-25T07:36:38;93809.72;;;0.25;83.31
52249;BME280;38541;48.130;8.378;2023-01-25T07:39:05;93813.44;;;0.22;83.08
52249;BME280;38541;48.130;8.378;2023-01-25T07:41:34;93803.91;;;0.23;83.33
52249;BME280;38541;48.130;8.378;2023-01-25T07:44:01;93810.50;;;0.25;82.66
52249;BME280;38541;48.130;8.378;2023-01-25T07:46:35;93809.53;;;0.26;82.27
52249;BME280;38541;48.130;8.378;2023-01-25T07:49:01;93803.38;;;0.27;82.07
52249;BME280;38541;48.130;8.378;2023-01-25T07:51:28;93803.38;;;0.27;82.24
52249;BME280;38541;48.130;8.378;2023-01-25T07:53:58;93799.19;;;0.26;82.70
52249;BME280;38541;48.130;8.378;2023-01-25T07:56:34;93791.44;;;0.26;82.48
52249;BME280;38541;48.130;8.378;2023-01-25T07:59:02;93793.22;;;0.26;82.15
52249;BME280;38541;48.130;8.378;2023-01-25T08:01:30;93784.97;;;0.31;82.44
52249;BME280;38541;48.130;8.378;2023-01-25T08:04:02;93781.97;;;0.42;82.37
52249;BME280;38541;48.130;8.378;2023-01-25T08:06:31;93773.13;;;0.36;81.08
52249;BME280;38541;48.130;8.378;2023-01-25T08:09:11;93776.16;;;0.40;81.82
52249;BME280;38541;48.130;8.378;2023-01-25T08:11:38;93781.97;;;0.42;81.67
52249;BME280;38541;48.130;8.378;2023-01-25T08:14:05;93784.53;;;0.42;81.91
52249;BME280;38541;48.130;8.378;2023-01-25T08:16:32;93768.88;;;0.44;81.02
52249;BME280;38541;48.130;8.378;2023-01-25T08:19:00;93771.81;;;0.40;81.07
52249;BME280;38541;48.130;8.378;2023-01-25T08:21:31;93778.41;;;0.43;80.96
52249;BME280;38541;48.130;8.378;2023-01-25T08:23:59;93775.53;;;0.38;80.88
52249;BME280;38541;48.130;8.378;2023-01-25T08:26:26;93770.09;;;0.33;81.19
52249;BME280;38541;48.130;8.378;2023-01-25T08:28:53;93779.25;;;0.35;81.30
52249;BME280;38541;48.130;8.378;2023-01-25T08:31:22;93779.22;;;0.44;81.87
52249;BME280;38541;48.130;8.378;2023-01-25T08:33:49;93778.63;;;0.56;81.61
52249;BME280;38541;48.130;8.378;2023-01-25T08:36:17;93775.22;;;0.56;79.86
52249;BME280;38541;48.130;8.378;2023-01-25T08:38:45;93773.06;;;0.68;80.70
52249;BME280;38541;48.130;8.378;2023-01-25T08:41:15;93758.69;;;0.80;80.72
52249;BME280;38541;48.130;8.378;2023-01-25T08:43:42;93756.66;;;0.91;80.47
52249;BME280;38541;48.130;8.378;2023-01-25T08:46:09;93756.84;;;0.89;79.12
52249;BME280;38541;48.130;8.378;2023-01-25T08:48:36;93757.28;;;0.93;78.76
52249;BME280;38541;48.130;8.378;2023-01-25T08:51:04;93756.72;;;0.82;79.74
52249;BME280;38541;48.130;8.378;2023-01-25T08:53:32;93766.41;;;0.89;80.11
52249;BME280;38541;48.130;8.378;2023-01-25T08:56:04;93756.31;;;0.94;79.53
52249;BME280;38541;48.130;8.378;2023-01-25T08:58:32;93750.25;;;1.02;78.90
52249;BME280;38541;48.130;8.378;2023-01-25T09:01:06;93746.13;;;0.92;78.75
52249;BME280;38541;48.130;8.378;2023-01-25T09:03:41;93747.72;;;0.93;79.30
52249;BME280;38541;48.130;8.378;2023-01-25T09:06:09;93738.91;;;0.88;79.24
52249;BME280;38541;48.130;8.378;2023-01-25T09:08:36;93745.59;;;0.97;79.60
52249;BME280;38541;48.130;8.378;2023-01-25T09:11:05;93747.41;;;0.96;78.95
52249;BME280;38541;48.130;8.378;2023-01-25T09:13:32;93754.97;;;0.98;78.75
52249;BME280;38541;48.130;8.378;2023-01-25T09:16:06;93756.03;;;0.89;78.90
52249;BME280;38541;48.130;8.378;2023-01-25T09:18:35;93750.50;;;0.92;79.30
52249;BME280;38541;48.130;8.378;2023-01-25T09:21:14;93740.63;;;0.95;79.36
52249;BME280;38541;48.130;8.378;2023-01-25T09:23:41;93737.84;;;0.97;78.59
52249;BME280;38541;48.130;8.378;2023-01-25T09:26:23;93734.72;;;1.02;78.32
52249;BME280;38541;48.130;8.378;2023-01-25T09:28:52;93732.31;;;1.00;78.61
52249;BME280;38541;48.130;8.378;2023-01-25T09:31:19;93735.50;;;1.02;78.07
52249;BME280;38541;48.130;8.378;2023-01-25T09:34:02;93734.19;;;1.06;79.18
52249;BME280;38541;48.130;8.378;2023-01-25T09:36:29;93730.97;;;1.04;78.52
52249;BME280;38541;48.130;8.378;2023-01-25T09:38:56;93727.06;;;1.08;78.25
52249;BME280;38541;48.130;8.378;2023-01-25T09:47:00;93738.72;;;1.04;77.40
52249;BME280;38541;48.130;8.378;2023-01-25T09:55:14;93740.97;;;1.07;77.79
52249;BME280;38541;48.130;8.378;2023-01-25T09:57:44;93737.94;;;0.89;77.49
52249;BME280;38541;48.130;8.378;2023-01-25T10:00:16;93739.19;;;1.08;77.80
52249;BME280;38541;48.130;8.378;2023-01-25T10:05:28;93735.28;;;1.27;77.40
52249;BME280;38541;48.130;8.378;2023-01-25T10:08:01;93729.72;;;1.30;76.69
52249;BME280;38541;48.130;8.378;2023-01-25T10:10:33;93732.94;;;1.32;76.60
52249;BME280;38541;48.130;8.378;2023-01-25T10:13:01;93728.38;;;1.34;77.26
52249;BME280;38541;48.130;8.378;2023-01-25T10:15:36;93728.13;;;1.29;76.23
52249;BME280;38541;48.130;8.378;2023-01-25T10:18:36;93731.06;;;0.96;76.28
52249;BME280;38541;48.130;8.378;2023-01-25T10:23:50;93713.66;;;1.05;78.13
52249;BME280;38541;48.130;8.378;2023-01-25T10:26:32;93721.31;;;1.13;78.54
52249;BME280;38541;48.130;8.378;2023-01-25T10:29:17;93723.38;;;1.18;78.65
52249;BME280;38541;48.130;8.378;2023-01-25T10:31:48;93715.97;;;1.14;77.90
52249;BME280;38541;48.130;8.378;2023-01-25T10:36:56;93717.69;;;1.07;77.98
52249;BME280;38541;48.130;8.378;2023-01-25T10:39:23;93716.09;;;1.06;78.45
52249;BME280;38541;48.130;8.378;2023-01-25T10:41:58;93722.22;;;1.20;78.38
52249;BME280;38541;48.130;8.378;2023-01-25T10:44:26;93716.16;;;1.28;78.37
52249;BME280;38541;48.130;8.378;2023-01-25T10:46:58;93708.75;;;1.25;77.77
52249;BME280;38541;48.130;8.378;2023-01-25T10:49:40;93703.38;;;1.26;77.26
52249;BME280;38541;48.130;8.378;2023-01-25T10:52:22;93692.41;;;1.24;76.83
52249;BME280;38541;48.130;8.378;2023-01-25T10:55:19;93700.00;;;1.26;77.61
52249;BME280;38541;48.130;8.378;2023-01-25T10:57:50;93692.69;;;1.14;77.14
52249;BME280;38541;48.130;8.378;2023-01-25T11:00:34;93690.66;;;1.25;77.89
52249;BME280;38541;48.130;8.378;2023-01-25T11:03:02;93692.69;;;1.14;77.22
52249;BME280;38541;48.130;8.378;2023-01-25T11:05:36;93697.31;;;1.04;78.06
52249;BME280;38541;48.130;8.378;2023-01-25T11:08:22;93691.53;;;1.17;77.39
52249;BME280;38541;48.130;8.378;2023-01-25T11:10:50;93687.53;;;1.14;78.00
52249;BME280;38541;48.130;8.378;2023-01-25T11:13:19;93690.00;;;1.23;77.61
52249;BME280;38541;48.130;8.378;2023-01-25T11:16:15;93688.75;;;1.19;77.24
52249;BME280;38541;48.130;8.378;2023-01-25T11:18:50;93678.03;;;1.22;77.41
52249;BME280;38541;48.130;8.378;2023-01-25T11:21:53;93676.44;;;1.21;77.64
52249;BME280;38541;48.130;8.378;2023-01-25T11:24:16;93668.97;;;0.96;77.62
52249;BME280;38541;48.130;8.378;2023-01-25T11:26:45;93669.34;;;0.93;77.84
52249;BME280;38541;48.130;8.378;2023-01-25T11:29:21;93670.13;;;0.93;78.31
52249;BME280;38541;48.130;8.378;2023-01-25T11:31:52;93670.28;;;1.07;78.60
52249;BME280;38541;48.130;8.378;2023-01-25T11:34:24;93664.84;;;1.17;78.30
52249;BME280;38541;48.130;8.378;2023-01-25T11:43:09;93652.28;;;1.13;77.46
52249;BME280;38541;48.130;8.378;2023-01-25T11:46:07;93651.84;;;0.95;77.85
52249;BME280;38541;48.130;8.378;2023-01-25T11:51:55;93647.63;;;1.09;78.37
52249;BME280;38541;48.130;8.378;2023-01-25T11:54:44;93647.25;;;1.12;77.87
52249;BME280;38541;48.130;8.378;2023-01-25T11:57:28;93640.66;;;1.24;77.60
52249;BME280;38541;48.130;8.378;2023-01-25T12:05:45;93627.78;;;1.31;77.05
52249;BME280;38541;48.130;8.378;2023-01-25T12:08:46;93623.06;;;1.20;76.82
52249;BME280;38541;48.130;8.378;2023-01-25T12:11:16;93617.34;;;1.24;77.21
52249;BME280;38541;48.130;8.378;2023-01-25T12:25:30;93589.25;;;1.21;77.78
52249;BME280;38541;48.130;8.378;2023-01-25T12:28:07;93583.63;;;1.18;78.04
52249;BME280;38541;48.130;8.378;2023-01-25T12:33:33;93569.03;;;1.32;77.07
52249;BME280;38541;48.130;8.378;2023-01-25T12:38:47;93559.66;;;1.31;77.20
52249;BME280;38541;48.130;8.378;2023-01-25T12:41:29;93561.09;;;1.33;76.07
52249;BME280;38541;48.130;8.378;2023-01-25T12:44:23;93551.19;;;1.37;76.58
52249;BME280;38541;48.130;8.378;2023-01-25T12:47:06;93550.97;;;1.38;76.31
52249;BME280;38541;48.130;8.378;2023-01-25T12:49:44;93548.69;;;1.28;76.18
52249;BME280;38541;48.130;8.378;2023-01-25T12:52:31;93544.88;;;1.03;75.41
52249;BME280;38541;48.130;8.378;2023-01-25T12:55:04;93541.84;;;0.99;76.87
52249;BME280;38541;48.130;8.378;2023-01-25T13:00:41;93531.72;;;1.04;77.63
52249;BME280;38541;48.130;8.378;2023-01-25T13:03:27;93538.88;;;1.02;78.14
52249;BME280;38541;48.130;8.378;2023-01-25T13:06:05;93534.97;;;1.06;78.13
52249;BME280;38541;48.130;8.378;2023-01-25T13:11:39;93519.22;;;1.08;77.00
52249;BME280;38541;48.130;8.378;2023-01-25T13:16:46;93517.38;;;1.02;78.00
52249;BME280;38541;48.130;8.378;2023-01-25T13:22:01;93525.16;;;1.02;78.11
52249;BME280;38541;48.130;8.378;2023-01-25T13:24:29;93520.03;;;0.87;77.40
52249;BME280;38541;48.130;8.378;2023-01-25T13:27:29;93515.63;;;0.50;78.70
52249;BME280;38541;48.130;8.378;2023-01-25T13:29:54;93515.44;;;0.67;79.00
52249;BME280;38541;48.130;8.378;2023-01-25T13:37:20;93513.13;;;0.94;78.09
52249;BME280;38541;48.130;8.378;2023-01-25T13:39:52;93499.75;;;0.90;77.07
52249;BME280;38541;48.130;8.378;2023-01-25T13:42:22;93493.72;;;0.83;77.88
52249;BME280;38541;48.130;8.378;2023-01-25T13:48:15;93491.66;;;0.78;77.72
52249;BME280;38541;48.130;8.378;2023-01-25T13:50:47;93487.38;;;0.85;77.76
52249;BME280;38541;48.130;8.378;2023-01-25T13:55:47;93477.38;;;0.82;78.14
52249;BME280;38541;48.130;8.378;2023-01-25T13:58:35;93482.63;;;0.89;77.71
52249;BME280;38541;48.130;8.378;2023-01-25T14:01:12;93479.88;;;0.91;77.55
52249;BME280;38541;48.130;8.378;2023-01-25T14:03:42;93479.88;;;0.91;77.63
52249;BME280;38541;48.130;8.378;2023-01-25T14:06:31;93481.03;;;0.88;77.27
52249;BME280;38541;48.130;8.378;2023-01-25T14:09:00;93481.47;;;0.92;77.40
52249;BME280;38541;48.130;8.378;2023-01-25T14:11:34;93478.97;;;0.83;77.76
52249;BME280;38541;48.130;8.378;2023-01-25T14:14:27;93483.22;;;0.69;78.10
52249;BME280;38541;48.130;8.378;2023-01-25T14:19:39;93476.06;;;0.71;78.31
52249;BME280;38541;48.130;8.378;2023-01-25T14:22:24;93478.59;;;0.65;77.90
52249;BME280;38541;48.130;8.378;2023-01-25T14:25:01;93478.78;;;0.63;78.51
52249;BME280;38541;48.130;8.378;2023-01-25T14:27:28;93469.78;;;0.59;78.23
52249;BME280;38541;48.130;8.378;2023-01-25T14:29:55;93464.97;;;0.56;78.35
52249;BME280;38541;48.130;8.378;2023-01-25T14:32:24;93452.94;;;0.63;78.70
52249;BME280;38541;48.130;8.378;2023-01-25T14:34:51;93462.09;;;0.66;78.29
52249;BME280;38541;48.130;8.378;2023-01-25T14:37:19;93461.31;;;0.65;78.16
52249;BME280;38541;48.130;8.378;2023-01-25T14:39:48;93464.94;;;0.71;78.36
52249;BME280;38541;48.130;8.378;2023-01-25T14:42:16;93453.78;;;0.70;78.12
52249;BME280;38541;48.130;8.378;2023-01-25T14:44:44;93462.09;;;0.66;77.99
52249;BME280;38541;48.130;8.378;2023-01-25T14:47:30;93455.69;;;0.62;78.29
52249;BME280;38541;48.130;8.378;2023-01-25T14:52:56;93445.84;;;0.50;79.58
52249;BME280;38541;48.130;8.378;2023-01-25T14:55:23;93456.47;;;0.40;79.69
52249;BME280;38541;48.130;8.378;2023-01-25T14:57:50;93462.06;;;0.44;79.47
52249;BME280;38541;48.130;8.378;2023-01-25T15:00:22;93459.09;;;0.47;79.18